Time;durP1;ratioP1;P1;durP2;ratioP2;P2;SDS_P1;SDS_P2;PMS_P1;PMS_P2;Temp;Humidity;BMP_temperature;BMP_pressure;BME280_temperature;BME280_humidity;BME280_pressure;Samples;Min_cycle;Max_cycle;Signal;HPM_P1;HPM_P2
2023/07/07 00:00:34;;;;;;;12.88;7.65;;;;;;;13.11;80.29;96350.81;2114098;28;20047;-60
2023/07/07 00:01:36;;;;;;;12.25;5.97;;;;;;;13.08;80.13;96353.56;2114545;28;20048;-60
2023/07/07 00:02:37;;;;;;;11.05;7.25;;;;;;;13.06;80.81;96348.44;2113786;28;20067;-60
2023/07/07 00:03:38;;;;;;;17.23;9.88;;;;;;;13.05;81.06;96359.78;2114791;28;20054;-60
2023/07/07 00:04:39;;;;;;;11.07;7.45;;;;;;;13.05;80.89;96348.53;2113175;28;20436;-60
2023/07/07 00:05:42;;;;;;;13.20;7.25;;;;;;;12.95;80.97;96332.50;2114738;28;20036;-60
2023/07/07 00:06:43;;;;;;;10.27;6.80;;;;;;;13.03;80.81;96338.16;2114657;28;20078;-60
2023/07/07 00:07:45;;;;;;;12.52;6.38;;;;;;;12.95;80.57;96325.50;2114025;28;20062;-60
2023/07/07 00:08:46;;;;;;;12.50;5.82;;;;;;;13.01;81.07;96340.84;2113837;28;20055;-60
2023/07/07 00:09:47;;;;;;;8.98;6.22;;;;;;;12.97;80.72;96341.09;2114551;28;20509;-60
2023/07/07 00:10:50;;;;;;;9.40;5.63;;;;;;;12.98;81.03;96345.38;2113625;28;20125;-60
2023/07/07 00:11:51;;;;;;;9.45;6.03;;;;;;;12.97;81.39;96341.94;2113928;28;20048;-60
2023/07/07 00:12:52;;;;;;;11.95;6.05;;;;;;;12.86;81.52;96323.41;2114657;28;20040;-60
2023/07/07 00:13:54;;;;;;;10.80;6.03;;;;;;;12.97;81.39;96347.13;2114549;28;20032;-60
2023/07/07 00:14:55;;;;;;;10.18;5.30;;;;;;;12.95;81.72;96346.38;2113763;28;20051;-60
2023/07/07 00:16:00;;;;;;;9.48;6.15;;;;;;;12.90;81.59;96347.53;2114424;28;20411;-60
2023/07/07 00:17:01;;;;;;;10.00;5.60;;;;;;;12.94;81.44;96349.91;2114318;28;20043;-60
2023/07/07 00:18:03;;;;;;;8.95;5.15;;;;;;;12.94;81.83;96355.13;2114183;28;20482;-60
2023/07/07 00:19:09;;;;;;;8.02;5.65;;;;;;;12.91;81.85;96355.28;2114293;28;20043;-60
2023/07/07 00:20:11;;;;;;;8.45;5.25;;;;;;;12.80;81.72;96337.59;2114272;28;20127;-60
2023/07/07 00:21:13;;;;;;;7.95;5.18;;;;;;;12.88;82.03;96349.34;2104980;28;20053;-60
2023/07/07 00:22:14;;;;;;;7.18;5.18;;;;;;;12.85;82.51;96349.53;2105583;28;20059;-60
2023/07/07 00:23:15;;;;;;;7.88;5.18;;;;;;;12.84;82.48;96353.06;2114706;28;20422;-60
2023/07/07 00:24:16;;;;;;;8.45;5.35;;;;;;;12.83;83.40;96352.22;2114443;28;20063;-60
2023/07/07 00:25:17;;;;;;;9.25;5.55;;;;;;;12.72;84.52;96334.53;2114273;28;20054;-60
2023/07/07 00:26:19;;;;;;;8.05;6.05;;;;;;;12.80;84.13;96348.00;2114567;28;20039;-60
2023/07/07 00:27:20;;;;;;;8.52;5.72;;;;;;;12.78;84.30;96351.59;2114424;28;20050;-60
2023/07/07 00:28:21;;;;;;;6.90;5.18;;;;;;;12.76;84.74;96345.63;2113471;28;20059;-60
2023/07/07 00:29:22;;;;;;;7.90;5.80;;;;;;;12.67;84.95;96336.50;2114468;28;20505;-60
2023/07/07 00:30:23;;;;;;;10.00;5.80;;;;;;;12.75;85.15;96351.72;2105095;28;20059;-60
2023/07/07 00:31:24;;;;;;;11.13;6.75;;;;;;;12.72;84.53;96350.16;2096633;28;20052;-59
2023/07/07 00:32:25;;;;;;;10.45;5.88;;;;;;;12.70;85.79;96357.19;2104809;28;20056;-60
2023/07/07 00:33:27;;;;;;;9.00;5.32;;;;;;;12.68;85.78;96356.44;2113750;28;20698;-61
2023/07/07 00:34:28;;;;;;;10.85;5.68;;;;;;;12.58;85.77;96343.00;2104658;28;20052;-60
2023/07/07 00:35:29;;;;;;;10.05;6.32;;;;;;;12.65;85.83;96359.19;2096392;28;20052;-60
2023/07/07 00:36:31;;;;;;;9.20;5.38;;;;;;;12.62;85.68;96363.72;2097019;28;20052;-60
2023/07/07 00:37:32;;;;;;;9.60;5.60;;;;;;;12.58;86.01;96355.19;2105451;28;20063;-60
2023/07/07 00:38:33;;;;;;;9.95;6.00;;;;;;;12.45;86.18;96338.47;2114850;28;20046;-60
2023/07/07 00:39:34;;;;;;;7.93;5.70;;;;;;;12.53;86.52;96358.00;2114641;28;20044;-60
2023/07/07 00:40:35;;;;;;;8.90;5.43;;;;;;;12.49;86.66;96353.88;2114232;28;20040;-60
2023/07/07 00:41:36;;;;;;;7.85;5.90;;;;;;;12.50;86.33;96355.56;2105411;28;20395;-60
2023/07/07 00:42:37;;;;;;;11.98;5.80;;;;;;;12.48;86.93;96356.56;2096621;28;20472;-59
2023/07/07 00:43:38;;;;;;;9.18;5.85;;;;;;;12.45;86.48;96357.53;2096507;28;20107;-60
2023/07/07 00:45:07;;;;;;;8.02;5.70;;;;;;;12.45;87.10;96361.91;2105035;28;20111;-60
2023/07/07 00:46:08;;;;;;;10.90;6.20;;;;;;;12.36;87.21;96358.84;2114001;28;20055;-59
2023/07/07 00:47:09;;;;;;;9.07;5.68;;;;;;;12.40;86.95;96362.13;2114077;28;20056;-60
2023/07/07 00:48:15;;;;;;;10.30;6.20;;;;;;;12.39;87.48;96365.66;2096653;28;20049;-60
2023/07/07 00:49:18;;;;;;;8.73;6.05;;;;;;;12.38;87.30;96368.38;2089620;28;20049;-60
2023/07/07 00:50:20;;;;;;;10.43;6.80;;;;;;;12.36;87.59;96374.47;2081337;28;20057;-60
2023/07/07 00:51:27;;;;;;;10.38;6.20;;;;;;;12.35;88.26;96374.56;2080916;28;20050;-59
2023/07/07 00:52:28;;;;;;;10.30;6.80;;;;;;;12.34;87.85;96370.25;2090498;28;20074;-60
2023/07/07 00:53:29;;;;;;;11.07;6.63;;;;;;;12.34;87.95;96370.25;2097839;28;20061;-59
2023/07/07 00:54:32;;;;;;;10.30;6.30;;;;;;;12.33;88.31;96379.00;2105594;28;20428;-60
2023/07/07 00:55:36;;;;;;;9.50;6.60;;;;;;;12.32;88.36;96378.16;2096680;28;20052;-60
2023/07/07 00:56:39;;;;;;;10.07;6.57;;;;;;;12.33;88.77;96381.59;2097680;28;20044;-59
2023/07/07 00:57:40;;;;;;;10.93;6.80;;;;;;;12.30;88.26;96379.16;2088849;28;20056;-60
2023/07/07 00:58:42;;;;;;;9.65;6.50;;;;;;;12.27;88.59;96379.25;2089076;28;20048;-60
2023/07/07 00:59:44;;;;;;;10.05;6.80;;;;;;;12.20;88.33;96364.88;2105143;28;20503;-60
2023/07/07 01:00:49;;;;;;;9.35;6.00;;;;;;;12.24;88.03;96377.69;2113642;28;20052;-60
2023/07/07 01:01:52;;;;;;;9.70;6.32;;;;;;;12.24;88.74;96382.03;2096942;28;20045;-60
2023/07/07 01:02:55;;;;;;;9.57;6.60;;;;;;;12.10;88.79;96360.09;2097465;28;20048;-60
2023/07/07 01:04:02;;;;;;;9.05;6.07;;;;;;;12.12;88.71;96365.22;2096936;28;20448;-60
2023/07/07 01:05:05;;;;;;;9.15;6.13;;;;;;;12.19;89.11;96374.44;2091014;28;20425;-60
2023/07/07 01:06:07;;;;;;;7.90;5.65;;;;;;;12.06;89.11;96358.56;2106192;28;20028;-59
2023/07/07 01:07:13;;;;;;;11.70;7.07;;;;;;;12.14;88.50;96374.66;2114592;28;20047;-60
2023/07/07 01:08:14;;;;;;;8.65;6.13;;;;;;;12.12;88.64;96376.50;2104909;28;20056;-60
2023/07/07 01:09:15;;;;;;;10.93;6.95;;;;;;;12.12;89.53;96375.66;2096750;28;20088;-59
2023/07/07 01:10:16;;;;;;;9.27;6.15;;;;;;;12.12;89.74;96379.09;2097358;28;20067;-60
2023/07/07 01:11:18;;;;;;;9.65;6.32;;;;;;;12.11;89.56;96373.97;2114637;28;20050;-60
2023/07/07 01:12:19;;;;;;;10.80;7.13;;;;;;;12.09;89.93;96381.00;2113901;28;20060;-60
2023/07/07 01:13:21;;;;;;;9.77;6.78;;;;;;;12.09;89.34;96379.25;2104972;28;20059;-59
2023/07/07 01:14:24;;;;;;;10.50;6.20;;;;;;;11.98;89.75;96371.09;2096328;28;20055;-60
2023/07/07 01:15:28;;;;;;;9.48;5.93;;;;;;;12.09;89.87;96384.44;2088434;28;20059;-59
2023/07/07 01:16:43;;;;;;;9.23;5.88;;;;;;;12.02;90.07;96375.22;2090663;28;20049;-60
2023/07/07 01:17:58;;;;;;;9.00;5.95;;;;;;;12.08;90.60;96382.78;2100229;28;20384;-60
2023/07/07 01:19:30;;;;;;;11.80;6.30;;;;;;;12.05;90.57;96388.09;2102013;28;20055;-59
2023/07/07 01:20:41;;;;;;;11.30;6.22;;;;;;;12.04;90.66;96394.22;2102687;28;20055;-60
2023/07/07 01:22:06;;;;;;;10.15;6.90;;;;;;;12.02;90.62;96393.44;2086101;28;20041;-60
2023/07/07 01:23:32;;;;;;;9.13;5.97;;;;;;;11.99;90.52;96400.56;2084744;28;20048;-60
2023/07/07 01:24:36;;;;;;;11.15;6.70;;;;;;;11.97;90.47;96391.97;2098192;28;20149;-59
2023/07/07 01:25:40;;;;;;;11.25;6.88;;;;;;;11.97;90.83;96398.03;2109579;28;20048;-60
2023/07/07 01:26:56;;;;;;;11.07;6.40;;;;;;;11.96;90.40;96396.34;2115354;28;20387;-60
2023/07/07 01:28:02;;;;;;;9.68;6.57;;;;;;;11.98;90.47;96397.13;2115244;28;20058;-60
2023/07/07 01:29:25;;;;;;;9.50;6.05;;;;;;;11.94;91.23;96398.16;2116284;28;20051;-59
2023/07/07 01:30:35;;;;;;;10.98;6.60;;;;;;;11.94;90.67;96398.16;2106257;28;20074;-59
2023/07/07 01:31:40;;;;;;;11.88;6.78;;;;;;;11.83;91.03;96380.41;2107967;28;20067;-60
2023/07/07 01:32:41;;;;;;;11.23;7.05;;;;;;;11.82;90.95;96377.91;2106412;28;20055;-60
2023/07/07 01:33:43;;;;;;;8.93;6.28;;;;;;;11.89;91.36;96394.94;2090345;28;20061;-60
2023/07/07 01:34:46;;;;;;;11.32;6.40;;;;;;;11.89;90.91;96390.59;2090229;28;20053;-60
2023/07/07 01:35:47;;;;;;;9.48;6.20;;;;;;;11.88;90.37;96396.69;2106573;28;20048;-60
2023/07/07 01:36:48;;;;;;;12.07;6.90;;;;;;;11.87;91.22;96394.19;2106992;28;20048;-60
2023/07/07 01:37:59;;;;;;;9.93;6.43;;;;;;;11.75;91.23;96381.69;2107036;28;20044;-60
2023/07/07 01:39:00;;;;;;;11.25;6.70;;;;;;;11.77;90.99;96379.88;2115441;28;20054;-60
2023/07/07 01:40:03;;;;;;;10.50;6.43;;;;;;;11.82;91.33;96398.72;2116043;28;20035;-59
2023/07/07 01:41:08;;;;;;;11.23;6.85;;;;;;;11.70;91.16;96374.09;2107031;28;20047;-59
2023/07/07 01:42:13;;;;;;;9.35;5.95;;;;;;;11.72;90.78;96379.22;2098912;28;20049;-59
2023/07/07 01:43:20;;;;;;;11.40;6.90;;;;;;;11.79;90.90;96398.84;2090865;28;20045;-59
2023/07/07 01:44:38;;;;;;;11.82;6.32;;;;;;;11.74;90.81;96391.25;2091776;28;20056;-59
2023/07/07 01:45:50;;;;;;;10.35;6.20;;;;;;;11.71;90.59;96391.41;2095077;28;20071;-59
2023/07/07 01:47:14;;;;;;;10.65;6.68;;;;;;;11.70;90.76;96395.72;2083492;28;20052;-65
2023/07/07 01:48:40;;;;;;;10.10;6.57;;;;;;;11.67;90.40;96401.06;2097144;28;20052;-60
2023/07/07 01:49:52;;;;;;;10.20;6.80;;;;;;;11.57;91.18;96389.41;2104343;28;20055;-59
2023/07/07 01:50:54;;;;;;;10.98;7.05;;;;;;;11.50;90.52;96372.41;2091938;28;20029;-60
2023/07/07 01:52:12;;;;;;;9.98;6.97;;;;;;;11.67;91.40;96402.84;2090884;28;20040;-59
2023/07/07 01:53:16;;;;;;;14.45;7.10;;;;;;;11.52;90.71;96386.19;2101341;28;20040;-60
2023/07/07 01:54:18;;;;;;;13.98;7.53;;;;;;;11.55;90.93;96395.59;2098760;28;20063;-60
2023/07/07 01:55:33;;;;;;;9.95;6.55;;;;;;;11.52;90.99;96386.19;2106509;28;20467;-60
2023/07/07 01:56:34;;;;;;;9.85;6.85;;;;;;;11.57;90.99;96399.78;2090121;28;20067;-60
2023/07/07 01:57:35;;;;;;;11.75;6.32;;;;;;;11.56;91.29;96397.28;2083686;28;20534;-60
2023/07/07 01:58:36;;;;;;;11.10;6.90;;;;;;;11.44;91.87;96386.53;2090026;28;20091;-60
2023/07/07 01:59:39;;;;;;;10.75;6.57;;;;;;;11.45;91.19;96388.19;2074080;28;20050;-59
2023/07/07 02:00:40;;;;;;;11.32;7.03;;;;;;;11.45;91.53;96389.97;2082258;28;20053;-59
2023/07/07 02:01:42;;;;;;;10.75;7.32;;;;;;;11.45;91.74;96388.19;2081822;28;20424;-59
2023/07/07 02:02:43;;;;;;;8.30;6.03;;;;;;;11.53;91.90;96405.22;2090315;28;20037;-60
2023/07/07 02:03:45;;;;;;;10.52;6.88;;;;;;;11.53;91.55;96403.47;2106989;28;20044;-59
2023/07/07 02:04:46;;;;;;;9.05;6.25;;;;;;;11.54;92.03;96409.50;2116156;28;20040;-59
2023/07/07 02:05:47;;;;;;;11.10;6.75;;;;;;;11.53;92.01;96406.06;2115941;28;20039;-59
2023/07/07 02:06:48;;;;;;;11.05;7.10;;;;;;;11.50;91.52;96401.00;2115736;28;20043;-59
2023/07/07 02:07:49;;;;;;;12.45;7.35;;;;;;;11.50;92.48;96407.97;2109846;28;20494;-60
2023/07/07 02:08:50;;;;;;;11.30;7.10;;;;;;;11.47;92.45;96401.97;2106754;28;20036;-59
2023/07/07 02:09:51;;;;;;;11.10;6.90;;;;;;;11.38;92.07;96391.13;2115500;28;20063;-59
2023/07/07 02:10:52;;;;;;;11.00;7.43;;;;;;;11.47;92.47;96403.75;2106445;28;20526;-60
2023/07/07 02:11:53;;;;;;;9.95;7.13;;;;;;;11.47;91.76;96404.59;2098586;28;20052;-59
2023/07/07 02:12:55;;;;;;;10.23;6.88;;;;;;;11.37;92.63;96390.28;2098155;28;20060;-59
2023/07/07 02:13:56;;;;;;;11.90;6.88;;;;;;;11.44;92.37;96402.13;2098108;28;20053;-59
2023/07/07 02:14:57;;;;;;;11.75;6.63;;;;;;;11.41;91.88;96398.78;2105766;28;20403;-60
2023/07/07 02:15:58;;;;;;;11.35;7.25;;;;;;;11.40;91.92;96400.56;2106273;28;20193;-60
2023/07/07 02:16:59;;;;;;;11.57;7.20;;;;;;;11.38;92.07;96401.53;2106407;28;20059;-59
2023/07/07 02:18:01;;;;;;;9.68;6.93;;;;;;;11.38;92.90;96410.16;2098620;28;20598;-60
2023/07/07 02:19:02;;;;;;;8.73;6.78;;;;;;;11.35;93.01;96404.28;2105771;28;20440;-64
2023/07/07 02:20:04;;;;;;;9.70;6.50;;;;;;;11.36;92.78;96404.22;2115110;28;20047;-59
2023/07/07 02:21:05;;;;;;;12.68;8.20;;;;;;;11.31;93.23;96397.53;2114874;28;20051;-60
2023/07/07 02:22:07;;;;;;;13.75;7.50;;;;;;;11.35;92.55;96396.47;2106199;28;20056;-59
2023/07/07 02:23:08;;;;;;;10.45;7.07;;;;;;;11.33;92.50;96400.88;2106853;28;20413;-59
2023/07/07 02:24:10;;;;;;;9.82;7.03;;;;;;;11.29;93.14;96394.16;2106923;28;20052;-59
2023/07/07 02:25:11;;;;;;;10.43;7.10;;;;;;;11.31;93.06;96403.56;2106832;28;20416;-59
2023/07/07 02:26:13;;;;;;;11.57;7.47;;;;;;;11.25;92.72;96391.69;2106192;28;20120;-59
2023/07/07 02:27:17;;;;;;;11.02;7.22;;;;;;;11.26;93.06;96393.38;2097761;28;20504;-59
2023/07/07 02:28:18;;;;;;;10.07;7.15;;;;;;;11.29;93.18;96400.19;2105401;28;20051;-60
2023/07/07 02:29:19;;;;;;;10.45;7.45;;;;;;;11.29;93.57;96405.38;2114794;28;20060;-59
2023/07/07 02:30:20;;;;;;;11.40;7.30;;;;;;;11.19;92.92;96391.94;2107008;28;20048;-59
2023/07/07 02:31:24;;;;;;;12.23;7.30;;;;;;;11.27;92.98;96404.59;2106019;28;20052;-59
2023/07/07 02:32:27;;;;;;;11.75;7.70;;;;;;;11.27;93.34;96402.00;2114982;28;20415;-60
2023/07/07 02:33:31;;;;;;;12.40;8.38;;;;;;;11.25;93.63;96406.41;2115080;28;20043;-59
2023/07/07 02:34:35;;;;;;;12.38;7.15;;;;;;;11.15;94.25;96386.94;2106698;28;20040;-60
2023/07/07 02:35:36;;;;;;;9.75;7.28;;;;;;;11.22;93.32;96403.94;2098454;28;20512;-59
2023/07/07 02:36:37;;;;;;;10.73;7.35;;;;;;;11.20;94.05;96401.44;2106724;28;20051;-59
2023/07/07 02:37:38;;;;;;;12.55;8.30;;;;;;;11.19;94.02;96399.72;2114674;28;20055;-59
2023/07/07 02:38:40;;;;;;;11.70;7.47;;;;;;;11.20;94.62;96400.56;2105662;28;20056;-59
2023/07/07 02:39:41;;;;;;;13.48;7.97;;;;;;;11.20;94.58;96401.44;2106763;28;20040;-60
2023/07/07 02:40:42;;;;;;;11.20;7.82;;;;;;;11.21;94.33;96403.13;2106632;28;20048;-59
2023/07/07 02:41:43;;;;;;;10.60;7.70;;;;;;;11.20;94.26;96405.75;2106081;28;20076;-59
2023/07/07 02:42:46;;;;;;;12.00;7.75;;;;;;;11.20;94.49;96403.16;2106044;28;20048;-60
2023/07/07 02:43:47;;;;;;;10.82;7.35;;;;;;;11.22;95.17;96407.38;2098268;28;20051;-59
2023/07/07 02:44:48;;;;;;;10.50;6.82;;;;;;;11.21;94.10;96410.91;2106879;28;20039;-60
2023/07/07 02:45:49;;;;;;;10.20;7.40;;;;;;;11.19;94.45;96404.94;2115648;28;20043;-59
2023/07/07 02:46:50;;;;;;;12.20;7.43;;;;;;;11.20;94.75;96416.16;2106436;28;20431;-59
2023/07/07 02:47:51;;;;;;;10.55;7.60;;;;;;;11.18;94.43;96412.81;2105883;28;20055;-59
2023/07/07 02:48:52;;;;;;;11.13;7.45;;;;;;;11.15;94.64;96416.38;2114840;28;20051;-60
2023/07/07 02:49:53;;;;;;;11.50;7.63;;;;;;;11.13;94.60;96412.16;2114945;28;20051;-60
2023/07/07 02:50:59;;;;;;;11.68;7.47;;;;;;;11.13;94.59;96419.97;2115628;28;20062;-59
2023/07/07 02:52:00;;;;;;;12.90;7.93;;;;;;;11.12;95.05;96419.13;2106538;28;20059;-60
2023/07/07 02:53:02;;;;;;;10.27;7.70;;;;;;;11.12;94.99;96418.25;2106636;28;20051;-60
2023/07/07 02:54:03;;;;;;;11.25;7.82;;;;;;;11.09;94.42;96419.22;2105607;28;20044;-60
2023/07/07 02:55:04;;;;;;;10.75;7.00;;;;;;;10.99;94.76;96395.41;2105835;28;20369;-60
2023/07/07 02:56:06;;;;;;;10.77;7.10;;;;;;;11.10;95.01;96418.34;2098123;28;20036;-59
2023/07/07 02:57:07;;;;;;;9.75;6.78;;;;;;;11.10;94.84;96418.34;2097421;28;20055;-60
2023/07/07 02:58:10;;;;;;;13.77;7.50;;;;;;;11.09;94.55;96421.81;2097901;28;20044;-60
2023/07/07 02:59:11;;;;;;;10.02;6.75;;;;;;;11.08;94.48;96427.94;2097727;28;20079;-59
2023/07/07 03:00:13;;;;;;;12.57;7.55;;;;;;;11.07;95.39;96425.44;2097786;28;20056;-60
2023/07/07 03:01:18;;;;;;;13.30;7.47;;;;;;;11.00;94.72;96412.66;2105547;28;20048;-59
2023/07/07 03:02:19;;;;;;;11.98;8.02;;;;;;;11.02;94.32;96415.22;2114444;28;20055;-59
2023/07/07 03:03:20;;;;;;;12.35;7.80;;;;;;;10.93;94.87;96394.81;2115459;28;20159;-59
2023/07/07 03:04:24;;;;;;;12.35;7.30;;;;;;;11.02;95.09;96415.22;2106597;28;20058;-58
2023/07/07 03:05:26;;;;;;;11.00;7.03;;;;;;;11.00;95.03;96410.06;2097809;28;20079;-59
2023/07/07 03:06:27;;;;;;;12.73;7.72;;;;;;;11.01;94.79;96416.97;2097468;28;20059;-59
2023/07/07 03:07:29;;;;;;;12.73;7.30;;;;;;;11.03;94.64;96416.91;2097985;28;20060;-59
2023/07/07 03:08:30;;;;;;;13.70;8.00;;;;;;;11.05;95.58;96409.88;2105573;28;20072;-59
2023/07/07 03:09:32;;;;;;;11.60;7.78;;;;;;;11.01;94.91;96411.78;2106731;28;20411;-60
2023/07/07 03:10:36;;;;;;;11.07;7.93;;;;;;;11.01;95.65;96411.78;2106283;28;20055;-59
2023/07/07 03:11:37;;;;;;;9.82;7.40;;;;;;;11.00;94.96;96412.66;2106358;28;20527;-59
2023/07/07 03:12:39;;;;;;;10.38;6.93;;;;;;;10.99;95.55;96413.59;2106274;28;20048;-59
2023/07/07 03:13:40;;;;;;;11.35;7.05;;;;;;;10.90;95.29;96397.53;2105861;28;20062;-59
2023/07/07 03:14:44;;;;;;;10.15;7.35;;;;;;;10.93;95.26;96408.66;2097966;28;20064;-59
2023/07/07 03:15:45;;;;;;;11.15;6.63;;;;;;;10.96;95.12;96413.72;2097359;28;20435;-59
2023/07/07 03:16:58;;;;;;;12.98;7.75;;;;;;;10.95;95.63;96416.38;2099740;28;20045;-59
2023/07/07 03:18:09;;;;;;;11.50;7.82;;;;;;;10.93;95.58;96415.59;2097908;28;20041;-59
2023/07/07 03:19:10;;;;;;;11.85;7.72;;;;;;;10.92;95.64;96417.34;2106462;28;20044;-59
2023/07/07 03:20:19;;;;;;;11.48;7.25;;;;;;;10.90;95.78;96419.16;2105932;28;20048;-58
2023/07/07 03:21:22;;;;;;;12.05;7.38;;;;;;;10.85;94.93;96409.88;2097820;28;20044;-60
2023/07/07 03:22:28;;;;;;;15.02;8.05;;;;;;;10.88;95.52;96417.53;2098293;28;20440;-60
2023/07/07 03:23:35;;;;;;;10.35;7.05;;;;;;;10.83;95.86;96415.16;2098375;28;20465;-59
2023/07/07 03:24:37;;;;;;;10.52;7.43;;;;;;;10.85;94.79;96417.66;2097080;28;20040;-60
2023/07/07 03:25:46;;;;;;;13.07;7.15;;;;;;;10.86;95.14;96416.78;2098932;28;20040;-60
2023/07/07 03:26:48;;;;;;;11.25;7.43;;;;;;;10.85;94.93;96415.06;2097265;28;20048;-60
2023/07/07 03:27:52;;;;;;;14.88;7.47;;;;;;;10.75;95.58;96399.03;2098301;28;20345;-60
2023/07/07 03:29:04;;;;;;;11.98;6.53;;;;;;;10.81;95.07;96412.59;2099081;28;20056;-59
2023/07/07 03:30:06;;;;;;;14.52;7.82;;;;;;;10.85;94.86;96415.91;2097070;28;20055;-59
2023/07/07 03:31:25;;;;;;;13.25;7.55;;;;;;;10.81;94.57;96420.38;2099791;28;20048;-59
2023/07/07 03:32:30;;;;;;;11.60;7.40;;;;;;;10.79;95.31;96422.19;2098848;28;20048;-60
2023/07/07 03:33:37;;;;;;;13.43;8.25;;;;;;;10.67;95.41;96399.34;2106052;28;20084;-59
2023/07/07 03:34:42;;;;;;;11.38;7.53;;;;;;;10.68;95.10;96416.59;2105338;28;20423;-60
2023/07/07 03:35:45;;;;;;;13.23;7.03;;;;;;;10.78;94.94;96423.13;2105390;28;20044;-59
2023/07/07 03:36:46;;;;;;;11.32;7.38;;;;;;;10.74;95.38;96420.69;2097571;28;20420;-59
2023/07/07 03:37:50;;;;;;;11.80;7.53;;;;;;;10.68;94.92;96408.81;2097949;28;20036;-60
2023/07/07 03:38:52;;;;;;;13.90;8.00;;;;;;;10.79;94.86;96435.19;2097526;28;20036;-60
2023/07/07 03:39:53;;;;;;;10.95;7.05;;;;;;;10.79;95.42;96432.59;2096692;28;20051;-59
2023/07/07 03:40:54;;;;;;;11.02;7.65;;;;;;;10.80;95.77;96436.91;2097778;28;20412;-59
2023/07/07 03:42:03;;;;;;;12.75;8.00;;;;;;;10.76;95.72;96429.28;2098071;28;20539;-60
2023/07/07 03:43:06;;;;;;;13.60;8.43;;;;;;;10.84;95.15;96434.16;2097148;28;20044;-59
2023/07/07 03:44:09;;;;;;;12.93;7.88;;;;;;;10.83;95.68;96433.34;2097442;28;20401;-59
2023/07/07 03:45:11;;;;;;;12.18;8.13;;;;;;;10.86;95.21;96440.16;2097714;28;20045;-60
2023/07/07 03:46:17;;;;;;;10.80;7.28;;;;;;;10.87;95.90;96432.28;2105378;28;20059;-59
2023/07/07 03:47:18;;;;;;;13.27;7.60;;;;;;;10.88;95.81;96435.72;2098212;28;20535;-59
2023/07/07 03:48:19;;;;;;;12.60;7.93;;;;;;;10.85;95.08;96431.50;2097159;28;20059;-60
2023/07/07 03:49:20;;;;;;;13.18;7.63;;;;;;;10.82;95.48;96421.22;2097117;28;20057;-59
2023/07/07 03:50:22;;;;;;;12.18;8.20;;;;;;;10.95;95.20;96442.34;2097663;28;20056;-59
2023/07/07 03:51:23;;;;;;;10.48;7.28;;;;;;;10.96;96.03;96444.91;2105551;28;20426;-59
2023/07/07 03:52:24;;;;;;;14.25;7.72;;;;;;;10.97;95.80;96446.59;2106883;28;20067;-59
2023/07/07 03:53:26;;;;;;;12.77;8.10;;;;;;;10.96;95.75;96433.63;2106320;28;20059;-59
2023/07/07 03:54:27;;;;;;;12.52;7.75;;;;;;;11.03;95.25;96446.31;2106823;28;20055;-59
2023/07/07 03:55:28;;;;;;;12.02;7.78;;;;;;;11.01;95.29;96436.91;2106836;28;20491;-59
2023/07/07 03:56:29;;;;;;;11.18;7.97;;;;;;;11.08;95.77;96453.94;2106248;28;20052;-59
2023/07/07 03:57:30;;;;;;;16.00;8.02;;;;;;;11.07;96.03;96443.63;2106026;28;20051;-59
2023/07/07 03:58:31;;;;;;;12.90;7.82;;;;;;;10.98;96.14;96422.28;2106028;28;20495;-59
2023/07/07 03:59:33;;;;;;;15.00;7.72;;;;;;;11.12;96.24;96445.13;2104926;28;20431;-59
2023/07/07 04:00:35;;;;;;;14.27;8.02;;;;;;;11.16;95.99;96449.25;2105278;28;20048;-59
2023/07/07 04:01:36;;;;;;;15.73;7.95;;;;;;;11.11;95.44;96437.38;2106073;28;20067;-60
2023/07/07 04:02:37;;;;;;;14.98;8.25;;;;;;;11.21;95.91;96447.31;2106057;28;20052;-59
2023/07/07 04:03:38;;;;;;;13.40;7.13;;;;;;;11.24;95.90;96447.19;2105935;28;20055;-59
2023/07/07 04:04:39;;;;;;;11.65;8.07;;;;;;;11.24;95.21;96444.56;2106235;28;20059;-59
2023/07/07 04:05:44;;;;;;;12.90;8.27;;;;;;;11.21;96.39;96434.31;2096860;28;20225;-59
2023/07/07 04:06:45;;;;;;;9.88;7.40;;;;;;;11.29;96.00;96440.94;2105563;28;20048;-60
2023/07/07 04:07:46;;;;;;;12.20;8.05;;;;;;;11.31;96.00;96439.97;2114955;28;20359;-59
2023/07/07 04:08:47;;;;;;;11.23;7.90;;;;;;;11.34;95.64;96441.59;2105410;28;20094;-59
2023/07/07 04:09:48;;;;;;;11.55;7.57;;;;;;;11.38;94.91;96443.13;2105357;28;20048;-59
2023/07/07 04:11:09;;;;;;;11.77;7.28;;;;;;;11.43;94.96;96441.19;2105313;28;20111;-59
2023/07/07 04:12:10;;;;;;;11.45;7.45;;;;;;;11.45;95.12;96437.59;2100274;28;20051;-59
2023/07/07 04:13:11;;;;;;;14.93;7.72;;;;;;;11.50;95.32;96446.97;2096950;28;20150;-59
2023/07/07 04:14:12;;;;;;;12.82;7.70;;;;;;;11.53;95.03;96442.47;2097445;28;20053;-59
2023/07/07 04:15:13;;;;;;;11.45;7.43;;;;;;;11.58;94.94;96447.50;2105855;28;20063;-59
2023/07/07 04:16:20;;;;;;;15.35;7.85;;;;;;;11.59;94.68;96442.19;2114036;28;20066;-58
2023/07/07 04:17:21;;;;;;;12.13;7.18;;;;;;;11.63;94.75;96441.16;2115226;28;20044;-59
2023/07/07 04:18:22;;;;;;;15.43;8.48;;;;;;;11.64;95.04;96442.84;2114298;28;20059;-59
2023/07/07 04:19:23;;;;;;;11.52;7.75;;;;;;;11.69;95.12;96446.09;2105468;28;20478;-59
2023/07/07 04:20:24;;;;;;;11.98;7.68;;;;;;;11.72;94.90;96446.88;2106000;28;20048;-59
2023/07/07 04:21:27;;;;;;;11.70;8.13;;;;;;;11.76;94.77;96451.00;2106092;28;20059;-59
2023/07/07 04:22:30;;;;;;;11.90;7.55;;;;;;;11.80;94.43;96447.38;2106404;28;20506;-59
2023/07/07 04:23:31;;;;;;;10.90;7.45;;;;;;;11.74;94.47;96437.25;2097319;28;20055;-59
2023/07/07 04:24:32;;;;;;;13.20;8.52;;;;;;;11.87;94.23;96451.44;2097684;28;20056;-59
2023/07/07 04:25:33;;;;;;;11.00;7.22;;;;;;;11.92;93.97;96449.44;2097666;28;20063;-59
2023/07/07 04:26:36;;;;;;;13.43;7.53;;;;;;;11.96;94.36;96448.41;2105543;28;20130;-59
2023/07/07 04:27:37;;;;;;;12.13;8.05;;;;;;;12.02;93.82;96453.31;2114044;28;20047;-59
2023/07/07 04:28:39;;;;;;;12.43;7.72;;;;;;;12.08;92.81;96452.19;2115204;28;20048;-59
2023/07/07 04:29:41;;;;;;;12.32;7.53;;;;;;;12.11;93.06;96452.91;2114930;28;20055;-59
2023/07/07 04:30:42;;;;;;;12.05;7.75;;;;;;;12.16;92.90;96457.03;2113892;28;20051;-60
2023/07/07 04:31:45;;;;;;;14.35;8.52;;;;;;;12.22;93.10;96459.38;2115108;28;20398;-60
2023/07/07 04:32:46;;;;;;;12.50;8.15;;;;;;;12.23;92.05;96456.69;2105702;28;20523;-59
2023/07/07 04:33:47;;;;;;;13.45;8.25;;;;;;;12.28;91.86;96453.88;2105767;28;20048;-59
2023/07/07 04:34:48;;;;;;;13.07;8.10;;;;;;;12.35;91.50;96463.09;2105750;28;20325;-60
2023/07/07 04:35:54;;;;;;;11.93;7.45;;;;;;;12.39;91.33;96462.03;2105873;28;20040;-59
2023/07/07 04:36:55;;;;;;;13.45;7.55;;;;;;;12.43;89.03;96463.59;2105582;28;20055;-60
2023/07/07 04:37:56;;;;;;;11.82;7.18;;;;;;;12.50;89.85;96464.13;2105878;28;20054;-60
2023/07/07 04:38:58;;;;;;;13.77;8.07;;;;;;;12.54;89.33;96469.13;2114251;28;20493;-60
2023/07/07 04:39:59;;;;;;;10.82;7.93;;;;;;;12.59;87.60;96474.13;2114882;28;20035;-59
2023/07/07 04:41:16;;;;;;;10.65;7.53;;;;;;;12.69;88.33;96475.34;2114502;28;20059;-59
2023/07/07 04:42:17;;;;;;;10.77;7.72;;;;;;;12.70;88.73;96460.59;2114267;28;20469;-59
2023/07/07 04:43:18;;;;;;;10.70;7.47;;;;;;;12.78;87.67;96471.50;2114108;28;20048;-59
2023/07/07 04:44:19;;;;;;;13.82;7.55;;;;;;;12.85;87.30;96474.63;2114266;28;20070;-60
2023/07/07 04:45:20;;;;;;;10.88;7.47;;;;;;;12.90;88.15;96470.88;2115048;28;20395;-59
2023/07/07 04:46:40;;;;;;;14.90;8.32;;;;;;;12.95;86.81;96479.31;2114326;28;20062;-59
2023/07/07 04:47:41;;;;;;;13.35;7.50;;;;;;;13.02;86.37;96478.09;2114321;28;20398;-60
2023/07/07 04:48:42;;;;;;;13.20;7.20;;;;;;;13.07;86.89;96477.03;2114337;28;20052;-60
2023/07/07 04:49:43;;;;;;;11.20;7.68;;;;;;;13.10;86.00;96475.13;2114812;28;20051;-59
2023/07/07 04:50:44;;;;;;;11.65;7.45;;;;;;;13.16;85.55;96477.41;2114428;28;20074;-60
2023/07/07 04:51:45;;;;;;;11.55;7.35;;;;;;;13.23;85.51;96480.53;2115709;28;20051;-59
2023/07/07 04:52:46;;;;;;;12.88;7.78;;;;;;;13.29;85.76;96479.47;2116152;28;20052;-60
2023/07/07 04:53:47;;;;;;;12.18;7.53;;;;;;;13.21;85.04;96458.94;2115956;28;20051;-60
2023/07/07 04:54:49;;;;;;;11.82;7.90;;;;;;;13.37;85.38;96483.34;2116428;28;20039;-59
2023/07/07 04:55:50;;;;;;;11.13;7.32;;;;;;;13.43;84.77;96483.03;2116553;28;20395;-60